Time;durP1;ratioP1;P1;durP2;ratioP2;P2;SDS_P1;SDS_P2;PMS_P1;PMS_P2;Temp;Humidity;BMP_temperature;BMP_pressure;BME280_temperature;BME280_humidity;BME280_pressure;Samples;Min_cycle;Max_cycle;Signal;HPM_P1;HPM_P2
2022/01/16 00:00:14;;;;;;;;;331.50;291.50;4.20;68.30;;;;;;5077614;28;8764;-63
2022/01/16 00:05:29;;;;;;;;;336.75;306.25;3.20;73.80;;;;;;5077792;28;8867;-64
2022/01/16 00:07:56;;;;;;;;;330.00;293.00;3.10;76.30;;;;;;5077677;28;9755;-64
2022/01/16 00:10:24;;;;;;;;;317.75;280.75;3.00;78.10;;;;;;5077363;28;8768;-64
2022/01/16 00:12:52;;;;;;;;;263.50;232.25;2.80;79.10;;;;;;5077148;28;8862;-64
2022/01/16 00:15:21;;;;;;;;;302.75;269.50;2.90;78.20;;;;;;5077566;28;8787;-64
2022/01/16 00:18:09;;;;;;;;;322.00;284.00;3.00;77.70;;;;;;5077303;28;8834;-64
2022/01/16 00:20:35;;;;;;;;;358.25;306.25;2.80;78.70;;;;;;5077258;28;8772;-65
2022/01/16 00:23:04;;;;;;;;;346.75;305.50;3.60;73.20;;;;;;5077372;28;9441;-64
2022/01/16 00:25:30;;;;;;;;;360.00;303.75;3.70;70.80;;;;;;5077346;28;9530;-64
2022/01/16 00:27:56;;;;;;;;;377.25;329.50;3.80;71.50;;;;;;5076507;28;8769;-65
2022/01/16 00:30:21;;;;;;;;;390.25;341.25;4.10;69.30;;;;;;5077001;28;8802;-64
2022/01/16 00:32:47;;;;;;;;;390.75;338.00;4.10;68.40;;;;;;5077013;28;8892;-65
2022/01/16 00:35:14;;;;;;;;;424.75;378.50;3.90;69.30;;;;;;5076838;28;8871;-64
2022/01/16 00:37:41;;;;;;;;;401.25;346.00;3.80;69.60;;;;;;5076955;28;8845;-65
2022/01/16 00:40:09;;;;;;;;;387.25;344.00;3.40;72.00;;;;;;5076997;28;8756;-64
2022/01/16 00:42:36;;;;;;;;;367.50;339.25;3.20;73.90;;;;;;5057310;28;8826;-65
2022/01/16 00:45:03;;;;;;;;;362.50;316.25;3.20;74.20;;;;;;5056668;28;8759;-65
2022/01/16 00:47:28;;;;;;;;;378.00;333.00;3.10;74.80;;;;;;5056214;28;8877;-64
2022/01/16 00:49:54;;;;;;;;;341.25;286.25;2.90;76.10;;;;;;5056641;28;8766;-64
2022/01/16 00:52:20;;;;;;;;;303.50;268.50;2.70;78.40;;;;;;5056871;28;8775;-64
2022/01/16 00:54:46;;;;;;;;;294.50;260.50;2.70;79.20;;;;;;5056713;28;8775;-65
2022/01/16 00:57:12;;;;;;;;;276.00;238.50;2.80;78.10;;;;;;5056577;28;8790;-64
2022/01/16 00:59:38;;;;;;;;;226.00;192.75;2.90;77.10;;;;;;5056850;28;8759;-64
2022/01/16 01:02:04;;;;;;;;;221.50;204.50;3.10;75.40;;;;;;5056470;28;9389;-64
2022/01/16 01:04:30;;;;;;;;;238.75;219.50;3.40;73.60;;;;;;5056474;28;8778;-64
2022/01/16 01:06:55;;;;;;;;;215.50;192.50;3.70;70.60;;;;;;5056450;28;8800;-64
2022/01/16 01:09:21;;;;;;;;;193.50;172.25;4.10;69.00;;;;;;5056305;28;8782;-64
2022/01/16 01:11:49;;;;;;;;;219.00;196.75;4.30;67.30;;;;;;5056140;28;8869;-64
2022/01/16 01:16:59;;;;;;;;;267.50;236.50;4.60;65.60;;;;;;5056287;28;8759;-64
2022/01/16 01:19:32;;;;;;;;;348.75;317.00;4.50;65.60;;;;;;5056429;28;8779;-62
2022/01/16 01:21:58;;;;;;;;;410.50;368.75;4.20;67.00;;;;;;5056275;28;8762;-63
2022/01/16 01:24:25;;;;;;;;;321.25;285.75;4.20;66.90;;;;;;5056456;28;8767;-64
2022/01/16 01:29:29;;;;;;;;;290.00;246.50;4.20;67.20;;;;;;5055949;28;8755;-63
2022/01/16 01:31:55;;;;;;;;;230.75;209.00;3.80;68.80;;;;;;5056174;28;8791;-63
2022/01/16 01:34:21;;;;;;;;;202.00;178.25;3.90;68.40;;;;;;5055420;28;8795;-63
2022/01/16 01:36:48;;;;;;;;;236.50;207.00;4.10;68.10;;;;;;5055610;28;8778;-62
2022/01/16 01:39:20;;;;;;;;;198.25;176.75;3.80;68.60;;;;;;5056216;28;8759;-62
2022/01/16 01:41:49;;;;;;;;;227.25;201.50;4.10;67.70;;;;;;5056119;28;8811;-62
2022/01/16 01:52:28;;;;;;;;;257.00;232.50;4.50;65.60;;;;;;5055641;28;8766;-63
2022/01/16 01:54:54;;;;;;;;;391.25;342.00;4.30;65.30;;;;;;5055884;28;9432;-63
2022/01/16 01:57:20;;;;;;;;;427.50;370.75;4.00;67.30;;;;;;5055577;28;8785;-63
2022/01/16 01:59:46;;;;;;;;;399.75;366.25;3.40;69.90;;;;;;5055579;28;8779;-63
2022/01/16 02:02:12;;;;;;;;;385.50;349.75;3.50;70.00;;;;;;5055584;28;8815;-63
2022/01/16 02:04:38;;;;;;;;;394.50;357.25;3.40;70.40;;;;;;5055364;28;8779;-63
2022/01/16 02:07:04;;;;;;;;;396.50;343.25;3.40;70.50;;;;;;5055514;28;8799;-63
2022/01/16 02:09:32;;;;;;;;;396.25;347.25;3.30;71.10;;;;;;5055162;28;8778;-63
2022/01/16 02:11:58;;;;;;;;;343.50;313.00;3.80;68.70;;;;;;5055079;28;8819;-63
2022/01/16 02:14:31;;;;;;;;;305.00;286.75;3.80;68.10;;;;;;5054830;28;8799;-63
2022/01/16 02:28:09;;;;;;;;;232.25;205.50;4.20;65.60;;;;;;5055061;28;8747;-63
2022/01/16 02:35:49;;;;;;;;;173.25;153.75;4.90;62.90;;;;;;5033786;28;8779;-62
2022/01/16 02:38:16;;;;;;;;;210.75;194.50;4.90;62.60;;;;;;5054653;28;8906;-63
2022/01/16 02:40:49;;;;;;;;;190.75;168.75;4.50;64.10;;;;;;5054403;28;8782;-63
2022/01/16 02:43:18;;;;;;;;;164.00;145.50;4.60;64.20;;;;;;5054864;28;9421;-63
2022/01/16 02:45:47;;;;;;;;;180.00;154.75;4.00;65.50;;;;;;5054622;28;8910;-63
2022/01/16 02:48:13;;;;;;;;;176.50;162.00;4.10;66.10;;;;;;5054794;28;8759;-63
2022/01/16 02:50:39;;;;;;;;;168.00;149.75;4.00;66.60;;;;;;5054389;28;8828;-63
2022/01/16 02:53:10;;;;;;;;;152.50;141.50;4.00;66.80;;;;;;5054440;28;8814;-63
2022/01/16 02:55:43;;;;;;;;;169.50;152.75;4.20;66.50;;;;;;5054414;28;8795;-63
2022/01/16 02:58:09;;;;;;;;;160.50;139.00;4.50;64.90;;;;;;5054614;28;8840;-63
2022/01/16 03:00:36;;;;;;;;;167.00;151.75;4.70;63.90;;;;;;5053349;28;8787;-63
2022/01/16 03:03:02;;;;;;;;;183.25;161.25;4.70;63.80;;;;;;5054332;28;8851;-63
2022/01/16 03:05:28;;;;;;;;;167.50;149.25;4.70;63.60;;;;;;5054303;28;8882;-63
2022/01/16 03:07:53;;;;;;;;;169.75;147.00;4.60;64.10;;;;;;5054530;28;8770;-63
2022/01/16 03:12:51;;;;;;;;;178.00;158.75;4.60;64.40;;;;;;5054082;28;8827;-63
2022/01/16 03:15:18;;;;;;;;;165.50;144.25;4.20;65.60;;;;;;5054494;28;8770;-63
2022/01/16 03:23:18;;;;;;;;;144.25;134.25;3.80;67.30;;;;;;5054171;28;8861;-63
2022/01/16 03:25:45;;;;;;;;;112.00;99.25;3.60;68.30;;;;;;5054199;28;8798;-64
2022/01/16 03:28:11;;;;;;;;;127.00;112.75;3.90;67.30;;;;;;5054159;28;8762;-63
2022/01/16 03:30:37;;;;;;;;;128.75;118.50;3.80;66.90;;;;;;5054301;28;8764;-63
2022/01/16 03:33:03;;;;;;;;;129.50;113.75;3.80;67.60;;;;;;5053979;28;8838;-63
2022/01/16 03:35:30;;;;;;;;;117.25;101.00;3.80;66.50;;;;;;5054295;28;8771;-63
2022/01/16 03:37:55;;;;;;;;;112.75;99.00;3.80;66.90;;;;;;5053996;28;8791;-63
2022/01/16 03:40:22;;;;;;;;;114.75;100.50;3.70;67.00;;;;;;5053877;28;8797;-64
2022/01/16 03:42:49;;;;;;;;;117.00;106.50;4.00;66.30;;;;;;5054295;28;8880;-64
2022/01/16 03:45:15;;;;;;;;;123.75;113.25;4.10;65.30;;;;;;5053929;28;8898;-63
2022/01/16 03:47:41;;;;;;;;;113.25;105.25;4.20;64.90;;;;;;5053859;28;8771;-63
2022/01/16 03:50:09;;;;;;;;;108.50;97.50;4.20;65.50;;;;;;5054173;28;9458;-63
2022/01/16 03:52:35;;;;;;;;;130.75;123.25;4.10;64.60;;;;;;5054088;28;8877;-63
2022/01/16 03:55:03;;;;;;;;;144.00;134.25;3.80;65.60;;;;;;5069508;28;8898;-63
2022/01/16 03:57:29;;;;;;;;;137.75;126.50;3.60;67.70;;;;;;5053910;28;8782;-63
2022/01/16 03:59:55;;;;;;;;;176.00;156.25;3.70;66.90;;;;;;5053874;28;8763;-62
2022/01/16 04:02:20;;;;;;;;;181.25;159.50;3.90;66.20;;;;;;5053755;28;8797;-62
2022/01/16 04:04:46;;;;;;;;;195.75;174.00;4.10;65.60;;;;;;5053988;28;8783;-62
2022/01/16 04:07:18;;;;;;;;;192.25;174.00;4.10;65.10;;;;;;5053730;28;8787;-62
2022/01/16 04:09:43;;;;;;;;;191.75;170.50;4.30;64.50;;;;;;5054172;28;8775;-63
2022/01/16 04:12:10;;;;;;;;;198.75;172.00;4.20;64.20;;;;;;5053731;28;8931;-65
2022/01/16 04:17:19;;;;;;;;;184.00;161.00;4.20;64.40;;;;;;5053949;28;8767;-63
2022/01/16 04:19:46;;;;;;;;;171.75;152.50;4.20;64.50;;;;;;5053919;28;8786;-63
2022/01/16 04:22:13;;;;;;;;;174.25;157.50;4.20;65.00;;;;;;5054721;28;8882;-63
2022/01/16 04:24:39;;;;;;;;;181.00;161.75;4.10;65.00;;;;;;5057253;28;8787;-63
2022/01/16 04:27:05;;;;;;;;;168.50;150.25;3.90;65.90;;;;;;5057224;28;8751;-65
2022/01/16 04:29:31;;;;;;;;;152.50;135.75;3.80;66.20;;;;;;5057005;28;8802;-62
2022/01/16 04:31:57;;;;;;;;;179.75;161.50;4.00;65.70;;;;;;5057306;28;8795;-63
2022/01/16 04:34:23;;;;;;;;;175.00;152.25;4.00;65.80;;;;;;5057198;28;8901;-62
2022/01/16 04:36:49;;;;;;;;;170.75;154.25;4.10;65.50;;;;;;5057189;28;8877;-62
2022/01/16 04:39:18;;;;;;;;;168.00;147.50;4.10;65.40;;;;;;5057146;28;8925;-63
2022/01/16 04:44:29;;;;;;;;;178.00;163.50;4.20;65.30;;;;;;5056892;28;8759;-62
2022/01/16 04:46:55;;;;;;;;;177.75;158.75;4.00;66.40;;;;;;5056785;28;8802;-63
2022/01/16 04:49:21;;;;;;;;;189.25;164.00;3.70;67.30;;;;;;5057003;28;8805;-62
2022/01/16 04:51:47;;;;;;;;;195.50;173.00;3.50;68.60;;;;;;5056582;28;9421;-62
2022/01/16 04:54:13;;;;;;;;;162.00;151.00;3.30;69.50;;;;;;5056900;28;8921;-62
2022/01/16 04:56:39;;;;;;;;;172.75;158.75;3.30;70.50;;;;;;5056918;28;8763;-62
2022/01/16 04:59:05;;;;;;;;;153.50;141.75;3.40;69.80;;;;;;5056557;28;8771;-62
2022/01/16 05:01:31;;;;;;;;;145.00;129.25;3.60;69.50;;;;;;5056693;28;8820;-62
2022/01/16 05:03:56;;;;;;;;;133.00;125.75;3.50;69.20;;;;;;5056439;28;8795;-63
2022/01/16 05:06:22;;;;;;;;;142.25;132.75;3.30;70.50;;;;;;5056735;28;8763;-62
2022/01/16 05:08:48;;;;;;;;;146.25;127.00;3.10;71.70;;;;;;5056306;28;8786;-62
2022/01/16 05:11:20;;;;;;;;;135.00;123.75;2.90;73.70;;;;;;5056368;28;8770;-63
2022/01/16 05:18:56;;;;;;;;;138.75;132.00;3.20;71.10;;;;;;5056311;28;8747;-63
2022/01/16 05:21:22;;;;;;;;;134.25;119.25;3.30;70.60;;;;;;5056119;28;8840;-63
2022/01/16 05:23:49;;;;;;;;;109.75;96.50;3.60;69.60;;;;;;5056081;28;8823;-62
2022/01/16 05:26:18;;;;;;;;;111.75;95.75;3.30;70.50;;;;;;5056292;28;8889;-62
2022/01/16 05:28:44;;;;;;;;;112.50;96.00;3.20;72.40;;;;;;5056127;28;8809;-63
2022/01/16 05:31:10;;;;;;;;;105.50;92.50;3.60;70.50;;;;;;5056146;28;8771;-63
2022/01/16 05:33:36;;;;;;;;;106.25;93.00;3.50;70.00;;;;;;5055492;28;9008;-62
2022/01/16 05:36:02;;;;;;;;;110.75;94.00;3.30;71.00;;;;;;5056007;28;8885;-62
2022/01/16 05:38:28;;;;;;;;;102.75;86.75;3.30;71.60;;;;;;5056102;28;8767;-63
2022/01/16 05:40:54;;;;;;;;;109.50;97.50;3.50;70.20;;;;;;5055933;28;8791;-62
2022/01/16 05:43:19;;;;;;;;;105.75;87.00;3.60;69.40;;;;;;5055720;28;8755;-62
2022/01/16 05:45:45;;;;;;;;;115.75;106.50;3.70;68.20;;;;;;5055719;28;8815;-63
2022/01/16 05:48:11;;;;;;;;;131.50;112.75;3.80;68.00;;;;;;5055608;28;8855;-62
2022/01/16 05:50:37;;;;;;;;;128.75;116.75;3.60;68.60;;;;;;5055594;28;8755;-63
2022/01/16 05:53:03;;;;;;;;;131.25;116.25;3.40;69.90;;;;;;5055734;28;8822;-63
2022/01/16 05:55:33;;;;;;;;;143.75;132.50;2.90;72.50;;;;;;5055580;28;8767;-63
2022/01/16 05:57:59;;;;;;;;;184.25;164.25;2.50;76.50;;;;;;5054331;28;8783;-64
2022/01/16 06:00:25;;;;;;;;;185.75;177.75;2.20;78.10;;;;;;5055623;28;8785;-63
2022/01/16 06:02:51;;;;;;;;;173.50;169.50;2.40;77.20;;;;;;5055248;28;8780;-63
2022/01/16 06:05:16;;;;;;;;;201.75;176.75;2.70;74.70;;;;;;5055521;28;8775;-63
2022/01/16 06:07:51;;;;;;;;;204.75;187.50;3.10;71.50;;;;;;5055445;28;8793;-63
2022/01/16 06:10:18;;;;;;;;;203.25;184.75;3.40;69.90;;;;;;5055111;28;8779;-63
2022/01/16 06:12:44;;;;;;;;;210.25;197.75;3.50;68.90;;;;;;5053853;28;8826;-66
2022/01/16 06:15:10;;;;;;;;;194.25;186.75;3.40;68.70;;;;;;5055134;28;8763;-65
2022/01/16 06:17:36;;;;;;;;;201.00;182.50;3.60;67.70;;;;;;5055054;28;8885;-63
2022/01/16 06:20:02;;;;;;;;;194.25;176.50;3.50;68.20;;;;;;5054846;28;8779;-62
2022/01/16 06:22:28;;;;;;;;;228.00;201.00;3.50;68.00;;;;;;5055142;28;8803;-62
2022/01/16 06:24:54;;;;;;;;;217.75;193.50;3.50;67.80;;;;;;5055142;28;8861;-62
2022/01/16 06:27:20;;;;;;;;;217.75;198.25;3.40;67.70;;;;;;5054911;28;8751;-63
2022/01/16 06:29:45;;;;;;;;;234.25;224.00;3.40;67.80;;;;;;5055010;28;8975;-63
2022/01/16 06:32:11;;;;;;;;;243.75;214.75;3.70;67.50;;;;;;5054740;28;8783;-62
2022/01/16 06:34:37;;;;;;;;;246.00;223.50;3.70;66.90;;;;;;5054448;28;8815;-64
2022/01/16 06:37:03;;;;;;;;;232.50;208.75;3.60;67.40;;;;;;5054691;28;9556;-62
2022/01/16 06:39:29;;;;;;;;;241.75;214.75;3.70;67.00;;;;;;5054426;28;8889;-63
2022/01/16 06:41:56;;;;;;;;;245.50;224.50;3.80;66.40;;;;;;5054490;28;8809;-64
2022/01/16 06:44:23;;;;;;;;;244.00;227.25;3.80;66.50;;;;;;5054144;28;8791;-63
2022/01/16 06:46:49;;;;;;;;;248.50;227.00;4.00;65.80;;;;;;5054202;28;8775;-64
2022/01/16 06:49:15;;;;;;;;;243.25;212.50;4.00;65.30;;;;;;5054377;28;8860;-63
2022/01/16 06:51:40;;;;;;;;;235.50;216.25;4.20;64.80;;;;;;5054252;28;8775;-63
2022/01/16 06:54:06;;;;;;;;;227.25;208.25;4.40;64.20;;;;;;5054350;28;8819;-63
2022/01/16 06:56:32;;;;;;;;;253.75;234.75;4.40;64.20;;;;;;5054446;28;8779;-63
2022/01/16 06:58:59;;;;;;;;;253.75;228.25;4.30;64.00;;;;;;5054295;28;8779;-63
2022/01/16 07:01:26;;;;;;;;;332.25;289.75;4.40;64.30;;;;;;5054481;28;8814;-63
2022/01/16 07:03:53;;;;;;;;;331.75;304.25;4.40;63.90;;;;;;5054226;28;8770;-64
2022/01/16 07:06:20;;;;;;;;;325.00;289.25;4.30;64.70;;;;;;5052402;28;8875;-64
2022/01/16 07:08:45;;;;;;;;;301.25;265.75;4.20;65.40;;;;;;5054348;28;8810;-64
2022/01/16 07:11:12;;;;;;;;;304.75;277.25;3.90;66.90;;;;;;5054226;28;9421;-63
2022/01/16 07:13:38;;;;;;;;;375.25;335.00;3.80;67.70;;;;;;5054258;28;9469;-64
2022/01/16 07:16:05;;;;;;;;;324.50;290.00;3.50;69.40;;;;;;5054389;28;8976;-64
2022/01/16 07:18:31;;;;;;;;;295.00;272.00;3.40;70.50;;;;;;5054100;28;8813;-64
2022/01/16 07:20:57;;;;;;;;;309.50;284.25;3.70;69.50;;;;;;5054539;28;8774;-63
2022/01/16 07:23:23;;;;;;;;;292.75;272.75;3.60;69.60;;;;;;5053858;28;8795;-64
2022/01/16 07:25:50;;;;;;;;;333.25;300.75;3.60;70.30;;;;;;5053977;28;8852;-64
2022/01/16 07:28:15;;;;;;;;;348.00;308.75;3.40;70.80;;;;;;5053978;28;8908;-63
2022/01/16 07:30:42;;;;;;;;;397.50;354.50;3.40;72.00;;;;;;5054013;28;8797;-64
2022/01/16 07:33:09;;;;;;;;;414.50;367.50;3.50;70.70;;;;;;5053848;28;8880;-64
2022/01/16 07:35:36;;;;;;;;;297.25;266.00;3.80;69.90;;;;;;5054254;28;8786;-64
2022/01/16 07:38:03;;;;;;;;;306.75;278.50;3.90;69.10;;;;;;5053793;28;8779;-64
2022/01/16 07:40:29;;;;;;;;;332.50;306.25;4.10;67.90;;;;;;5054094;28;9396;-64
2022/01/16 07:42:56;;;;;;;;;335.75;309.50;4.30;66.40;;;;;;5053220;28;8841;-63
2022/01/16 07:45:22;;;;;;;;;320.00;293.75;4.00;67.40;;;;;;5053724;28;8775;-64
2022/01/16 07:47:48;;;;;;;;;336.25;300.25;3.90;70.30;;;;;;5054010;28;8767;-64
2022/01/16 07:50:15;;;;;;;;;352.00;305.75;3.60;73.10;;;;;;5054037;28;8859;-64
2022/01/16 07:52:41;;;;;;;;;322.50;286.00;3.20;75.40;;;;;;5053826;28;8794;-64
2022/01/16 07:55:08;;;;;;;;;303.00;273.75;3.00;79.20;;;;;;5053756;28;8882;-63
2022/01/16 07:57:34;;;;;;;;;307.75;286.25;3.00;78.90;;;;;;5056969;28;8759;-65
2022/01/16 07:59:59;;;;;;;;;304.00;280.25;3.20;77.10;;;;;;5057557;28;8909;-62
2022/01/16 08:02:25;;;;;;;;;282.00;256.25;3.40;75.60;;;;;;5057760;28;8909;-65
2022/01/16 08:04:51;;;;;;;;;191.50;178.50;3.60;74.60;;;;;;5057481;28;8841;-62
2022/01/16 08:07:17;;;;;;;;;193.75;170.25;3.70;74.80;;;;;;5057510;28;8775;-63
2022/01/16 08:09:43;;;;;;;;;175.50;161.25;3.90;73.30;;;;;;5057450;28;8763;-66
2022/01/16 08:12:11;;;;;;;;;167.50;150.00;3.70;74.30;;;;;;5057208;28;8823;-64
2022/01/16 08:14:37;;;;;;;;;144.25;134.00;4.20;71.70;;;;;;5057145;28;8814;-63
2022/01/16 08:17:03;;;;;;;;;145.50;129.75;4.50;69.00;;;;;;5057643;28;8763;-62
2022/01/16 08:19:29;;;;;;;;;234.00;206.25;4.80;68.10;;;;;;5057256;28;8771;-63
2022/01/16 08:21:55;;;;;;;;;241.75;211.00;4.70;68.10;;;;;;5056857;28;8845;-63
2022/01/16 08:24:22;;;;;;;;;244.75;218.25;4.50;69.20;;;;;;5056680;28;8783;-62
2022/01/16 08:26:48;;;;;;;;;257.50;228.00;4.20;70.80;;;;;;5057354;28;8927;-62
2022/01/16 08:29:14;;;;;;;;;310.00;277.25;4.10;72.50;;;;;;5056991;28;9457;-64
2022/01/16 08:31:39;;;;;;;;;278.25;252.50;4.20;72.90;;;;;;5056787;28;8877;-65
2022/01/16 08:34:06;;;;;;;;;280.75;243.50;4.60;70.30;;;;;;5056839;28;8903;-62
2022/01/16 08:36:32;;;;;;;;;281.75;249.00;4.90;68.70;;;;;;5063645;28;9460;-64
2022/01/16 08:38:58;;;;;;;;;267.25;242.00;4.70;68.90;;;;;;5065605;28;8864;-63
2022/01/16 08:41:25;;;;;;;;;260.75;229.50;4.60;72.20;;;;;;5075062;28;8815;-63
2022/01/16 08:43:51;;;;;;;;;267.25;239.00;4.30;72.70;;;;;;5075470;28;8813;-64
2022/01/16 08:46:18;;;;;;;;;255.25;238.25;4.30;72.00;;;;;;5074708;28;8852;-63
2022/01/16 08:48:44;;;;;;;;;275.00;252.75;4.20;73.10;;;;;;5074460;28;8792;-65
2022/01/16 08:51:10;;;;;;;;;252.00;221.50;4.40;71.30;;;;;;5074233;28;8781;-64
2022/01/16 08:53:36;;;;;;;;;206.75;189.75;4.50;70.50;;;;;;5074892;28;8834;-66
2022/01/16 08:56:02;;;;;;;;;175.25;163.25;4.90;70.70;;;;;;5070661;28;8769;-66
2022/01/16 08:58:28;;;;;;;;;190.75;171.25;4.90;72.00;;;;;;5073170;28;8780;-64
2022/01/16 09:00:54;;;;;;;;;242.75;206.75;4.50;74.30;;;;;;5073940;28;8858;-68
2022/01/16 09:03:21;;;;;;;;;220.00;190.75;4.30;75.10;;;;;;5070813;28;8791;-66
2022/01/16 09:05:49;;;;;;;;;197.75;182.75;4.60;72.30;;;;;;5069993;28;8868;-67
2022/01/16 09:08:15;;;;;;;;;237.75;219.25;4.90;71.20;;;;;;5072622;28;8757;-75
2022/01/16 09:10:42;;;;;;;;;216.75;204.50;5.10;69.20;;;;;;5069676;28;8769;-70
2022/01/16 09:13:15;;;;;;;;;237.50;218.00;5.30;68.50;;;;;;5070509;28;8796;-69
2022/01/16 09:15:47;;;;;;;;;245.75;228.00;5.40;69.00;;;;;;5073012;28;8749;-70
2022/01/16 09:18:13;;;;;;;;;272.50;241.25;5.40;69.20;;;;;;5074761;28;8783;-70
2022/01/16 09:20:40;;;;;;;;;245.25;218.75;5.50;69.10;;;;;;5073898;28;8764;-69
2022/01/16 09:23:06;;;;;;;;;251.50;228.50;5.60;69.90;;;;;;5075530;28;9489;-70
2022/01/16 09:25:32;;;;;;;;;228.50;207.75;5.70;69.10;;;;;;5076225;28;8787;-72
2022/01/16 09:27:58;;;;;;;;;244.25;221.00;6.00;67.30;;;;;;5066438;28;8787;-69
2022/01/16 09:30:24;;;;;;;;;220.75;191.00;6.00;68.70;;;;;;5055805;28;8844;-70
2022/01/16 09:32:50;;;;;;;;;165.75;154.00;6.20;67.60;;;;;;5055738;28;8755;-70
2022/01/16 09:35:17;;;;;;;;;168.25;155.50;6.20;68.70;;;;;;5055891;28;8769;-71
2022/01/16 09:37:44;;;;;;;;;140.00;130.25;6.10;68.30;;;;;;5055808;28;8889;-68
2022/01/16 09:40:13;;;;;;;;;153.75;147.25;6.10;68.20;;;;;;5058970;28;8776;-66
2022/01/16 09:42:39;;;;;;;;;162.75;150.75;5.80;70.80;;;;;;5074581;28;8761;-73
2022/01/16 09:45:08;;;;;;;;;186.25;161.75;5.90;71.10;;;;;;5075451;28;9323;-74
2022/01/16 09:47:34;;;;;;;;;169.00;159.00;6.30;70.70;;;;;;5075617;28;8777;-71
2022/01/16 09:50:04;;;;;;;;;178.50;164.75;6.40;70.10;;;;;;5069653;28;8775;-68
2022/01/16 09:52:32;;;;;;;;;189.25;168.00;6.30;71.10;;;;;;5069130;28;8800;-70
2022/01/16 09:54:58;;;;;;;;;160.00;140.50;6.60;69.40;;;;;;5057001;28;8814;-73
2022/01/16 09:57:24;;;;;;;;;159.00;145.75;6.90;67.50;;;;;;5058971;28;8791;-68
2022/01/16 09:59:50;;;;;;;;;145.75;137.50;7.10;66.60;;;;;;5071213;28;8866;-70
2022/01/16 10:02:16;;;;;;;;;151.75;137.75;7.10;66.10;;;;;;5070661;28;8800;-71
2022/01/16 10:04:44;;;;;;;;;153.50;143.00;7.20;66.40;;;;;;5071879;28;8807;-70
2022/01/16 10:07:12;;;;;;;;;150.25;141.50;7.30;65.30;;;;;;5069638;28;8773;-68
2022/01/16 10:09:42;;;;;;;;;150.50;142.00;7.40;66.10;;;;;;5068387;28;8881;-67
2022/01/16 10:12:15;;;;;;;;;150.75;134.00;7.40;66.50;;;;;;5068779;28;8843;-66
2022/01/16 10:14:52;;;;;;;;;148.50;140.25;7.30;66.30;;;;;;5071484;28;8809;-66
2022/01/16 10:17:20;;;;;;;;;150.50;130.75;7.90;65.40;;;;;;5070378;28;8792;-67
2022/01/16 10:20:00;;;;;;;;;147.25;131.25;8.40;65.50;;;;;;5071555;28;8776;-68
2022/01/16 10:22:45;;;;;;;;;115.75;106.50;9.10;62.50;;;;;;5072217;28;8812;-68
2022/01/16 10:25:14;;;;;;;;;128.00;119.00;11.30;58.00;;;;;;5071685;28;8769;-66
2022/01/16 10:27:43;;;;;;;;;123.00;114.25;15.80;47.70;;;;;;5073720;28;8768;-67
2022/01/16 10:30:13;;;;;;;;;118.75;114.75;17.70;41.90;;;;;;5071322;28;8807;-66
2022/01/16 10:32:42;;;;;;;;;111.75;105.25;19.40;37.70;;;;;;5073603;28;8773;-70
2022/01/16 10:35:21;;;;;;;;;129.50;121.50;20.40;36.60;;;;;;5069415;28;8815;-67
2022/01/16 10:37:56;;;;;;;;;110.25;108.00;22.10;33.10;;;;;;5070753;28;8787;-73
2022/01/16 10:40:23;;;;;;;;;101.50;101.25;22.70;32.10;;;;;;5073633;28;8792;-71
2022/01/16 10:42:51;;;;;;;;;103.25;103.00;23.60;30.00;;;;;;5067443;28;8776;-73
2022/01/16 10:45:22;;;;;;;;;99.75;99.75;23.30;30.00;;;;;;5073305;28;8822;-72
2022/01/16 10:47:57;;;;;;;;;109.75;109.75;24.20;29.90;;;;;;5072009;28;8885;-68
2022/01/16 10:50:33;;;;;;;;;96.00;95.00;25.10;28.30;;;;;;5068969;28;8776;-70
2022/01/16 10:53:01;;;;;;;;;76.25;73.75;26.50;27.20;;;;;;5069672;28;8881;-69
2022/01/16 10:55:35;;;;;;;;;76.50;70.75;26.50;27.10;;;;;;5072155;28;8765;-69
2022/01/16 10:58:06;;;;;;;;;80.50;77.75;27.30;26.40;;;;;;5071706;28;8772;-69
2022/01/16 11:00:32;;;;;;;;;79.25;76.75;30.00;24.20;;;;;;5073159;28;8769;-69
2022/01/16 11:03:04;;;;;;;;;71.75;63.00;30.70;23.10;;;;;;5073204;28;8882;-67
2022/01/16 11:05:36;;;;;;;;;65.00;55.00;30.30;23.30;;;;;;5073481;28;8879;-70
2022/01/16 11:08:05;;;;;;;;;62.33;51.00;29.40;24.10;;;;;;5074058;28;8781;-68
2022/01/16 11:10:37;;;;;;;;;65.50;54.00;27.10;25.00;;;;;;5074601;28;8756;-68
2022/01/16 11:13:07;;;;;;;;;61.50;50.25;26.10;26.50;;;;;;5074101;28;8835;-68
2022/01/16 11:15:34;;;;;;;;;64.00;52.00;27.30;25.40;;;;;;5074333;28;8837;-66
2022/01/16 11:18:03;;;;;;;;;68.00;55.75;28.20;24.90;;;;;;5068994;28;8776;-66
2022/01/16 11:20:35;;;;;;;;;62.25;51.25;28.10;24.70;;;;;;5067920;28;8857;-66
2022/01/16 11:23:27;;;;;;;;;62.50;51.00;27.40;24.90;;;;;;5067601;28;8792;-66
2022/01/16 11:26:06;;;;;;;;;65.75;54.00;28.60;24.60;;;;;;5071605;28;8795;-67
2022/01/16 11:28:33;;;;;;;;;63.25;52.25;29.10;23.70;;;;;;5071704;28;8761;-66
2022/01/16 11:31:02;;;;;;;;;55.33;45.67;29.60;23.00;;;;;;5073672;28;9406;-67
2022/01/16 11:33:30;;;;;;;;;63.00;52.00;29.70;22.90;;;;;;5077142;28;8869;-67
2022/01/16 11:36:25;;;;;;;;;66.25;59.75;29.90;22.60;;;;;;5073987;28;8812;-67
2022/01/16 11:38:54;;;;;;;;;57.00;48.00;31.70;21.90;;;;;;5072337;28;8772;-67
2022/01/16 11:41:25;;;;;;;;;60.33;50.33;31.60;21.70;;;;;;5078375;28;8768;-67
2022/01/16 11:43:52;;;;;;;;;56.67;47.33;30.80;22.00;;;;;;5078415;28;8752;-70
2022/01/16 11:46:29;;;;;;;;;58.67;48.33;31.60;21.00;;;;;;5078065;28;8787;-66
2022/01/16 11:48:57;;;;;;;;;54.00;45.33;32.50;20.80;;;;;;5078062;28;8780;-66
2022/01/16 11:51:35;;;;;;;;;60.33;49.67;32.10;20.90;;;;;;5078184;28;8752;-67
2022/01/16 11:54:12;;;;;;;;;62.25;51.00;33.30;19.90;;;;;;5077996;28;8820;-66
2022/01/16 11:56:41;;;;;;;;;51.33;44.33;32.40;20.10;;;;;;5078188;28;8775;-66
2022/01/16 11:59:20;;;;;;;;;55.33;46.33;32.30;20.20;;;;;;5062635;28;8795;-66
2022/01/16 12:01:47;;;;;;;;;46.67;40.33;31.00;21.30;;;;;;5057809;28;8791;-67
2022/01/16 12:04:31;;;;;;;;;49.33;42.33;30.30;21.30;;;;;;5057705;28;8801;-66
2022/01/16 12:06:58;;;;;;;;;52.00;43.67;30.50;21.20;;;;;;5065947;28;8803;-66
2022/01/16 12:12:16;;;;;;;;;54.33;45.67;32.30;20.50;;;;;;5071076;28;8824;-67
2022/01/16 12:15:07;;;;;;;;;52.67;44.33;31.80;19.90;;;;;;5072817;28;8815;-68
2022/01/16 12:17:46;;;;;;;;;54.67;46.00;31.90;20.00;;;;;;5073328;28;8744;-67
2022/01/16 12:20:12;;;;;;;;;47.00;40.67;30.20;21.10;;;;;;5076166;28;8760;-66
2022/01/16 12:22:47;;;;;;;;;49.00;41.67;30.30;20.80;;;;;;5076034;28;8919;-67
2022/01/16 12:25:16;;;;;;;;;47.00;40.33;31.30;20.20;;;;;;5076208;28;8781;-67
2022/01/16 12:27:46;;;;;;;;;52.00;44.00;31.40;20.00;;;;;;5074640;28;9436;-67
2022/01/16 12:30:35;;;;;;;;;54.00;45.67;32.00;19.70;;;;;;5073998;28;8858;-67
2022/01/16 12:33:29;;;;;;;;;51.33;43.00;31.70;19.40;;;;;;5065832;28;8889;-67
2022/01/16 12:35:55;;;;;;;;;53.33;45.33;31.50;19.80;;;;;;5067379;28;8904;-66
2022/01/16 12:38:23;;;;;;;;;53.00;45.00;31.20;20.10;;;;;;5069438;28;8787;-66
2022/01/16 12:40:53;;;;;;;;;55.00;46.00;30.00;20.30;;;;;;5073400;28;8764;-68
2022/01/16 12:43:29;;;;;;;;;53.75;45.50;30.50;20.40;;;;;;5073228;28;8777;-67
2022/01/16 12:45:56;;;;;;;;;51.00;43.67;30.70;20.00;;;;;;5071430;28;8806;-67
2022/01/16 12:48:22;;;;;;;;;58.33;49.00;30.50;20.00;;;;;;5073121;28;8749;-67
2022/01/16 12:50:49;;;;;;;;;58.00;48.33;29.50;20.20;;;;;;5075451;28;8737;-67
2022/01/16 12:53:52;;;;;;;;;52.67;44.00;29.20;20.90;;;;;;5073499;28;8950;-66
2022/01/16 12:56:26;;;;;;;;;55.00;46.00;29.10;21.10;;;;;;5072642;28;8764;-66
2022/01/16 12:58:58;;;;;;;;;53.00;45.00;28.70;21.10;;;;;;5068495;28;8763;-67
2022/01/16 13:01:25;;;;;;;;;56.00;46.33;29.30;20.40;;;;;;5072809;28;8757;-66
2022/01/16 13:03:51;;;;;;;;;56.33;47.33;29.70;20.20;;;;;;5069815;28;8818;-66
2022/01/16 13:06:23;;;;;;;;;52.67;43.67;30.00;20.00;;;;;;5067363;28;8811;-66
2022/01/16 13:08:58;;;;;;;;;62.00;51.50;29.40;20.40;;;;;;5057013;28;9550;-67
2022/01/16 13:11:29;;;;;;;;;55.67;46.33;29.50;20.20;;;;;;5072382;28;8792;-65
2022/01/16 13:13:56;;;;;;;;;52.33;44.00;29.10;20.90;;;;;;5069608;28;8792;-66
2022/01/16 13:16:26;;;;;;;;;55.33;46.33;29.60;20.10;;;;;;5069210;28;8759;-66
2022/01/16 13:19:11;;;;;;;;;59.33;48.67;29.10;20.20;;;;;;5071442;28;8813;-66
2022/01/16 13:22:13;;;;;;;;;58.00;48.67;28.50;20.40;;;;;;5073204;28;8777;-66
2022/01/16 13:24:47;;;;;;;;;48.67;41.00;28.30;20.80;;;;;;5071425;28;8774;-66
2022/01/16 13:27:24;;;;;;;;;58.00;48.67;28.30;20.50;;;;;;5072810;28;8753;-66